Seabourn Quest — C6YZ5 — position and weather

sailwx.info

Track history (hours):
 
Tides and Currents Weather Stations Pressure Air Temp Water Temp Dewpoint Dewpoint Depression Visibility Wind Speed Wind Dir Waves Ship Positions

Seabourn Quest

Last reported at 2017-Aug-19 04:32 UTC. Time now 2017-Aug-19 14:51 UTC.
Position N 51°07' E 001°19'.

Length 512 m; draft 6.7 m.

Type: Passenger vessel. MMSI: 311038900.

Date/timePositionNaut miles runAvg speedWind from/ knotsBaromVisibWave heightAir tempDewpointWater temp
2017-Aug-19 04:32N 51°07' E 001°19'0 1.4
2017-Aug-19 04:28N 51°07' E 001°19'1 2.5
2017-Aug-19 04:00N 51°07' E 001°21'4 8.6
2017-Aug-19 03:30N 51°06' E 001°27'510.0
2017-Aug-19 03:00N 51°02' E 001°32'5 9.8
2017-Aug-19 02:30N 50°58' E 001°29'57 8.8
2017-Aug-18 19:57N 50°22' E 000°17'4 9.3
2017-Aug-18 19:29N 50°21' E 000°11'5 9.5
2017-Aug-18 19:00N 50°20' E 000°04'5 9.4
2017-Aug-18 18:27N 50°18' W 000°04'4 9.4
2017-Aug-18 17:58N 50°17' W 000°11'5 9.3
2017-Aug-18 17:29N 50°16' W 000°17'38 9.5
2017-Aug-18 13:30N 50°07' W 001°15'5 9.6
2017-Aug-18 13:00N 50°06' W 001°22'5 9.6
2017-Aug-18 12:30N 50°05' W 001°29'5 9.6
2017-Aug-18 12:01N 50°03' W 001°37'5 9.4
2017-Aug-18 11:30N 50°02' W 001°44'5 9.4
2017-Aug-18 11:00N 50°01' W 001°51'5 9.0
2017-Aug-18 10:30N 49°60' W 001°58'4 7.4
2017-Aug-18 09:58N 49°59' W 002°03'4 9.1
2017-Aug-18 09:30N 49°58' W 002°10'24 9.1
2017-Aug-18 06:54N 49°52' W 002°46'4 9.2
2017-Aug-18 06:30N 49°51' W 002°51'8 9.1
2017-Aug-18 05:39N 49°50' W 003°03'1 9.3
2017-Aug-18 05:30N 49°50' W 003°05'5 9.1
2017-Aug-18 05:00N 49°51' W 003°12'5 9.1
2017-Aug-18 04:30N 49°52' W 003°19'5 9.3
2017-Aug-18 04:00N 49°51' W 003°26'4 8.7
2017-Aug-18 03:30N 49°51' W 003°33'5 9.1
2017-Aug-18 03:00N 49°51' W 003°40'5 9.4
2017-Aug-18 02:30N 49°50' W 003°47'5 9.2
2017-Aug-18 02:00N 49°51' W 003°55'5 9.5
2017-Aug-18 01:30N 49°51' W 004°02'5 9.8
2017-Aug-18 01:00N 49°51' W 004°10'5 9.8
2017-Aug-18 00:30N 49°50' W 004°17'5 9.7
2017-Aug-18 00:00N 49°50' W 004°25'5 9.5
2017-Aug-17 23:26N 49°50' W 004°33'4 9.5
2017-Aug-17 23:00N 49°50' W 004°40'5 9.4
2017-Aug-17 22:30N 49°50' W 004°47'9 9.3
2017-Aug-17 21:29N 49°51' W 005°01'5 9.1
2017-Aug-17 20:53N 49°51' W 005°10'13 9.2
2017-Aug-17 19:29N 49°52' W 005°30'4 9.2
2017-Aug-17 19:00N 49°52' W 005°37'31 2.0
2017-Aug-17 03:09N 50°19' W 006°01'212.2
2017-Aug-17 02:59N 50°21' W 006°01'10413.1
2017-Aug-16 19:03N 51°35' W 007°57'113.5
2017-Aug-16 19:00N 51°35' W 007°58'713.4
2017-Aug-16 18:31N 51°40' W 008°06'713.8
2017-Aug-16 18:00N 51°45' W 008°13'510.7
2017-Aug-16 17:30N 51°50' W 008°16'2 3.1
2017-Aug-16 16:59N 51°51' W 008°18'0 0.0
2017-Aug-16 16:29N 51°51' W 008°18'0 0.0
2017-Aug-16 15:59N 51°51' W 008°18'0 0.0
2017-Aug-16 15:29N 51°51' W 008°18'0 0.0
2017-Aug-16 14:59N 51°51' W 008°18'0 0.0
2017-Aug-16 14:29N 51°51' W 008°18'0 0.0
2017-Aug-16 13:59N 51°51' W 008°18'0 0.0
2017-Aug-16 13:29N 51°51' W 008°18'0 0.0
2017-Aug-16 12:59N 51°51' W 008°18'0 0.0
2017-Aug-16 12:29N 51°51' W 008°18'0 0.0
2017-Aug-16 11:59N 51°51' W 008°18'0 0.0
2017-Aug-16 11:29N 51°51' W 008°18'0 0.0
2017-Aug-16 10:59N 51°51' W 008°18'0 0.0
2017-Aug-16 10:29N 51°51' W 008°18'0 0.0
2017-Aug-16 09:59N 51°51' W 008°18'0 0.0
2017-Aug-16 09:29N 51°51' W 008°18'0 0.0
2017-Aug-16 08:59N 51°51' W 008°18'0 0.0
2017-Aug-16 08:29N 51°51' W 008°18'0 0.0
2017-Aug-16 07:59N 51°51' W 008°18'0 0.0
2017-Aug-16 07:29N 51°51' W 008°18'0 0.0
2017-Aug-16 06:59N 51°51' W 008°18'0 0.0
2017-Aug-16 06:29N 51°51' W 008°18'0 0.3
2017-Aug-16 06:00N 51°51' W 008°18'2 3.0
2017-Aug-16 05:30N 51°50' W 008°16'510.3
2017-Aug-16 05:00N 51°45' W 008°14'612.3
2017-Aug-16 04:31N 51°44' W 008°04'715.0
2017-Aug-16 04:01N 51°47' W 007°53'815.1
2017-Aug-16 03:31N 51°49' W 007°41'714.9
2017-Aug-16 03:01N 51°51' W 007°30'815.1
2017-Aug-16 02:31N 51°54' W 007°18'816.7
2017-Aug-16 02:01N 51°56' W 007°05'816.6
2017-Aug-16 01:31N 51°59' W 006°52'816.1
2017-Aug-16 01:01N 52°01' W 006°40'816.0
2017-Aug-16 00:31N 52°04' W 006°27'815.8
2017-Aug-16 00:01N 52°06' W 006°15'713.7
2017-Aug-15 23:30N 52°11' W 006°07'713.4
2017-Aug-15 23:00N 52°17' W 006°02'714.5
2017-Aug-15 22:30N 52°23' W 005°55'815.0
2017-Aug-15 22:00N 52°29' W 005°47'815.2
2017-Aug-15 21:29N 52°35' W 005°40'84 1.7
2017-Aug-13 20:48N 53°54' W 004°51'12 6.0
2017-Aug-13 18:45N 54°01' W 004°35'5 0.4
2017-Aug-13 05:46N 54°05' W 004°28'311.0
2017-Aug-13 05:30N 54°03' W 004°32'23 9.1
2017-Aug-13 03:01N 54°09' W 005°09'0 9.9
2017-Aug-13 02:59N 54°09' W 005°09'510.1
2017-Aug-13 02:31N 54°14' W 005°07'510.3
2017-Aug-13 02:01N 54°18' W 005°04'510.1
2017-Aug-13 01:31N 54°23' W 005°01'5 9.6
2017-Aug-13 01:01N 54°28' W 005°01'510.2
2017-Aug-13 00:30N 54°33' W 005°05'510.1
2017-Aug-13 00:01N 54°37' W 005°08'510.0
2017-Aug-12 23:31N 54°42' W 005°12'510.5
2017-Aug-12 23:01N 54°46' W 005°16'611.6
2017-Aug-12 22:30N 54°52' W 005°20'611.4
2017-Aug-12 22:01N 54°57' W 005°22'910.8
2017-Aug-12 21:12N 55°06' W 005°17'14 0.4
2017-Aug-11 12:34N 55°12' W 005°38'1 9.3
2017-Aug-11 12:26N 55°12' W 005°40'4 9.2
2017-Aug-11 12:00N 55°12' W 005°47'12 9.8
2017-Aug-11 10:44N 55°19' W 006°04'311.7
2017-Aug-11 10:30N 55°21' W 006°08'613.0
2017-Aug-11 10:00N 55°23' W 006°19'612.5
2017-Aug-11 09:30N 55°25' W 006°29'713.7
2017-Aug-11 08:59N 55°29' W 006°40'4 8.9
2017-Aug-11 08:30N 55°27' W 006°47'5 8.7
2017-Aug-11 07:58N 55°23' W 006°49'4 8.7
2017-Aug-11 07:29N 55°19' W 006°51'611.6
2017-Aug-11 06:59N 55°14' W 006°55'3 5.4
2017-Aug-11 06:29N 55°12' W 006°59'4 9.2
2017-Aug-11 06:00N 55°15' W 006°53'610.0
2017-Aug-11 05:21N 55°22' W 006°53'411.4
2017-Aug-11 04:58N 55°25' W 006°57'510.9
2017-Aug-11 04:30N 55°30' W 006°55'713.5
2017-Aug-11 04:00N 55°34' W 006°46'510.2
2017-Aug-11 03:29N 55°31' W 006°38'510.7
2017-Aug-11 03:00N 55°30' W 006°48'611.3
2017-Aug-11 02:30N 55°36' W 006°48'511.2
2017-Aug-11 02:00N 55°42' W 006°47'611.3
2017-Aug-11 01:30N 55°47' W 006°46'611.2
2017-Aug-11 01:00N 55°52' W 006°41'48 6.9
2017-Aug-10 18:06N 56°24' W 005°37'2 7.3
2017-Aug-10 17:49N 56°25' W 005°34'2 6.6
2017-Aug-10 17:30N 56°26' W 005°31'0 0.6
2017-Aug-10 16:59N 56°26' W 005°30'0 0.0
2017-Aug-10 15:11N 56°26' W 005°30'0 0.1
2017-Aug-10 14:59N 56°26' W 005°30'0 0.0
2017-Aug-10 13:44N 56°26' W 005°30'0 0.0
2017-Aug-10 12:47N 56°26' W 005°30'0 0.1
2017-Aug-10 12:26N 56°26' W 005°30'0 0.1
2017-Aug-10 11:56N 56°26' W 005°30'0 0.0
2017-Aug-10 10:47N 56°26' W 005°30'0 0.0
2017-Aug-10 10:29N 56°26' W 005°30'0 0.0
2017-Aug-10 09:59N 56°26' W 005°30'0 0.0
2017-Aug-10 09:05N 56°26' W 005°30'0 0.4
2017-Aug-10 08:56N 56°26' W 005°30'0 0.1
2017-Aug-10 08:20N 56°26' W 005°30'0 0.0
2017-Aug-10 07:56N 56°26' W 005°30'0 0.0
2017-Aug-10 07:26N 56°26' W 005°30'0 0.0
2017-Aug-10 06:59N 56°26' W 005°30'0 0.1
2017-Aug-10 06:30N 56°26' W 005°30'1 2.3
2017-Aug-10 06:00N 56°26' W 005°32'611.5
2017-Aug-10 05:30N 56°22' W 005°40'  
Track history (hours):
 
Tides and Currents Weather Stations Pressure Air Temp Water Temp Dewpoint Dewpoint Depression Visibility Wind Speed Wind Dir Waves Ship Positions

Seabourn Quest

Last reported at 2017-Aug-19 04:32 UTC. Time now 2017-Aug-19 14:51 UTC.
Position N 51°07' E 001°19'.

Length 512 m; draft 6.7 m.

Type: Passenger vessel. MMSI: 311038900.

Date/timePositionNaut miles runAvg speedWind from/ knotsBaromVisibWave heightAir tempDewpointWater temp
2017-Aug-19 04:32N 51°07' E 001°19'0 1.4
2017-Aug-19 04:28N 51°07' E 001°19'1 2.5
2017-Aug-19 04:00N 51°07' E 001°21'4 8.6
2017-Aug-19 03:30N 51°06' E 001°27'510.0
2017-Aug-19 03:00N 51°02' E 001°32'5 9.8
2017-Aug-19 02:30N 50°58' E 001°29'57 8.8
2017-Aug-18 19:57N 50°22' E 000°17'4 9.3
2017-Aug-18 19:29N 50°21' E 000°11'5 9.5
2017-Aug-18 19:00N 50°20' E 000°04'5 9.4
2017-Aug-18 18:27N 50°18' W 000°04'4 9.4
2017-Aug-18 17:58N 50°17' W 000°11'5 9.3
2017-Aug-18 17:29N 50°16' W 000°17'38 9.5
2017-Aug-18 13:30N 50°07' W 001°15'5 9.6
2017-Aug-18 13:00N 50°06' W 001°22'5 9.6
2017-Aug-18 12:30N 50°05' W 001°29'5 9.6
2017-Aug-18 12:01N 50°03' W 001°37'5 9.4
2017-Aug-18 11:30N 50°02' W 001°44'5 9.4
2017-Aug-18 11:00N 50°01' W 001°51'5 9.0
2017-Aug-18 10:30N 49°60' W 001°58'4 7.4
2017-Aug-18 09:58N 49°59' W 002°03'4 9.1
2017-Aug-18 09:30N 49°58' W 002°10'24 9.1
2017-Aug-18 06:54N 49°52' W 002°46'4 9.2
2017-Aug-18 06:30N 49°51' W 002°51'8 9.1
2017-Aug-18 05:39N 49°50' W 003°03'1 9.3
2017-Aug-18 05:30N 49°50' W 003°05'5 9.1
2017-Aug-18 05:00N 49°51' W 003°12'5 9.1
2017-Aug-18 04:30N 49°52' W 003°19'5 9.3
2017-Aug-18 04:00N 49°51' W 003°26'4 8.7
2017-Aug-18 03:30N 49°51' W 003°33'5 9.1
2017-Aug-18 03:00N 49°51' W 003°40'5 9.4
2017-Aug-18 02:30N 49°50' W 003°47'5 9.2
2017-Aug-18 02:00N 49°51' W 003°55'5 9.5
2017-Aug-18 01:30N 49°51' W 004°02'5 9.8
2017-Aug-18 01:00N 49°51' W 004°10'5 9.8
2017-Aug-18 00:30N 49°50' W 004°17'5 9.7
2017-Aug-18 00:00N 49°50' W 004°25'5 9.5
2017-Aug-17 23:26N 49°50' W 004°33'4 9.5
2017-Aug-17 23:00N 49°50' W 004°40'5 9.4
2017-Aug-17 22:30N 49°50' W 004°47'9 9.3
2017-Aug-17 21:29N 49°51' W 005°01'5 9.1
2017-Aug-17 20:53N 49°51' W 005°10'13 9.2
2017-Aug-17 19:29N 49°52' W 005°30'4 9.2
2017-Aug-17 19:00N 49°52' W 005°37'31 2.0
2017-Aug-17 03:09N 50°19' W 006°01'212.2
2017-Aug-17 02:59N 50°21' W 006°01'10413.1
2017-Aug-16 19:03N 51°35' W 007°57'113.5
2017-Aug-16 19:00N 51°35' W 007°58'713.4
2017-Aug-16 18:31N 51°40' W 008°06'713.8
2017-Aug-16 18:00N 51°45' W 008°13'510.7
2017-Aug-16 17:30N 51°50' W 008°16'2 3.1
2017-Aug-16 16:59N 51°51' W 008°18'0 0.0
2017-Aug-16 16:29N 51°51' W 008°18'0 0.0
2017-Aug-16 15:59N 51°51' W 008°18'0 0.0
2017-Aug-16 15:29N 51°51' W 008°18'0 0.0
2017-Aug-16 14:59N 51°51' W 008°18'0 0.0
2017-Aug-16 14:29N 51°51' W 008°18'0 0.0
2017-Aug-16 13:59N 51°51' W 008°18'0 0.0
2017-Aug-16 13:29N 51°51' W 008°18'0 0.0
2017-Aug-16 12:59N 51°51' W 008°18'0 0.0
2017-Aug-16 12:29N 51°51' W 008°18'0 0.0
2017-Aug-16 11:59N 51°51' W 008°18'0 0.0
2017-Aug-16 11:29N 51°51' W 008°18'0 0.0
2017-Aug-16 10:59N 51°51' W 008°18'0 0.0
2017-Aug-16 10:29N 51°51' W 008°18'0 0.0
2017-Aug-16 09:59N 51°51' W 008°18'0 0.0
2017-Aug-16 09:29N 51°51' W 008°18'0 0.0
2017-Aug-16 08:59N 51°51' W 008°18'0 0.0
2017-Aug-16 08:29N 51°51' W 008°18'0 0.0
2017-Aug-16 07:59N 51°51' W 008°18'0 0.0
2017-Aug-16 07:29N 51°51' W 008°18'0 0.0
2017-Aug-16 06:59N 51°51' W 008°18'0 0.0
2017-Aug-16 06:29N 51°51' W 008°18'0 0.3
2017-Aug-16 06:00N 51°51' W 008°18'2 3.0
2017-Aug-16 05:30N 51°50' W 008°16'510.3
2017-Aug-16 05:00N 51°45' W 008°14'612.3
2017-Aug-16 04:31N 51°44' W 008°04'715.0
2017-Aug-16 04:01N 51°47' W 007°53'815.1
2017-Aug-16 03:31N 51°49' W 007°41'714.9
2017-Aug-16 03:01N 51°51' W 007°30'815.1
2017-Aug-16 02:31N 51°54' W 007°18'816.7
2017-Aug-16 02:01N 51°56' W 007°05'816.6
2017-Aug-16 01:31N 51°59' W 006°52'816.1
2017-Aug-16 01:01N 52°01' W 006°40'816.0
2017-Aug-16 00:31N 52°04' W 006°27'815.8
2017-Aug-16 00:01N 52°06' W 006°15'713.7
2017-Aug-15 23:30N 52°11' W 006°07'713.4
2017-Aug-15 23:00N 52°17' W 006°02'714.5
2017-Aug-15 22:30N 52°23' W 005°55'815.0
2017-Aug-15 22:00N 52°29' W 005°47'815.2
2017-Aug-15 21:29N 52°35' W 005°40'84 1.7
2017-Aug-13 20:48N 53°54' W 004°51'12 6.0
2017-Aug-13 18:45N 54°01' W 004°35'5 0.4
2017-Aug-13 05:46N 54°05' W 004°28'311.0
2017-Aug-13 05:30N 54°03' W 004°32'23 9.1
2017-Aug-13 03:01N 54°09' W 005°09'0 9.9
2017-Aug-13 02:59N 54°09' W 005°09'510.1
2017-Aug-13 02:31N 54°14' W 005°07'510.3
2017-Aug-13 02:01N 54°18' W 005°04'510.1
2017-Aug-13 01:31N 54°23' W 005°01'5 9.6
2017-Aug-13 01:01N 54°28' W 005°01'510.2
2017-Aug-13 00:30N 54°33' W 005°05'510.1
2017-Aug-13 00:01N 54°37' W 005°08'510.0
2017-Aug-12 23:31N 54°42' W 005°12'510.5
2017-Aug-12 23:01N 54°46' W 005°16'611.6
2017-Aug-12 22:30N 54°52' W 005°20'611.4
2017-Aug-12 22:01N 54°57' W 005°22'910.8
2017-Aug-12 21:12N 55°06' W 005°17'14 0.4
2017-Aug-11 12:34N 55°12' W 005°38'1 9.3
2017-Aug-11 12:26N 55°12' W 005°40'4 9.2
2017-Aug-11 12:00N 55°12' W 005°47'12 9.8
2017-Aug-11 10:44N 55°19' W 006°04'311.7
2017-Aug-11 10:30N 55°21' W 006°08'613.0
2017-Aug-11 10:00N 55°23' W 006°19'612.5
2017-Aug-11 09:30N 55°25' W 006°29'713.7
2017-Aug-11 08:59N 55°29' W 006°40'4 8.9
2017-Aug-11 08:30N 55°27' W 006°47'5 8.7
2017-Aug-11 07:58N 55°23' W 006°49'4 8.7
2017-Aug-11 07:29N 55°19' W 006°51'611.6
2017-Aug-11 06:59N 55°14' W 006°55'3 5.4
2017-Aug-11 06:29N 55°12' W 006°59'4 9.2
2017-Aug-11 06:00N 55°15' W 006°53'610.0
2017-Aug-11 05:21N 55°22' W 006°53'411.4
2017-Aug-11 04:58N 55°25' W 006°57'510.9
2017-Aug-11 04:30N 55°30' W 006°55'713.5
2017-Aug-11 04:00N 55°34' W 006°46'510.2
2017-Aug-11 03:29N 55°31' W 006°38'510.7
2017-Aug-11 03:00N 55°30' W 006°48'611.3
2017-Aug-11 02:30N 55°36' W 006°48'511.2
2017-Aug-11 02:00N 55°42' W 006°47'611.3
2017-Aug-11 01:30N 55°47' W 006°46'611.2
2017-Aug-11 01:00N 55°52' W 006°41'48 6.9
2017-Aug-10 18:06N 56°24' W 005°37'2 7.3
2017-Aug-10 17:49N 56°25' W 005°34'2 6.6
2017-Aug-10 17:30N 56°26' W 005°31'0 0.6
2017-Aug-10 16:59N 56°26' W 005°30'0 0.0
2017-Aug-10 15:11N 56°26' W 005°30'0 0.1
2017-Aug-10 14:59N 56°26' W 005°30'0 0.0
2017-Aug-10 13:44N 56°26' W 005°30'0 0.0
2017-Aug-10 12:47N 56°26' W 005°30'0 0.1
2017-Aug-10 12:26N 56°26' W 005°30'0 0.1
2017-Aug-10 11:56N 56°26' W 005°30'0 0.0
2017-Aug-10 10:47N 56°26' W 005°30'0 0.0
2017-Aug-10 10:29N 56°26' W 005°30'0 0.0
2017-Aug-10 09:59N 56°26' W 005°30'0 0.0
2017-Aug-10 09:05N 56°26' W 005°30'0 0.4
2017-Aug-10 08:56N 56°26' W 005°30'0 0.1
2017-Aug-10 08:20N 56°26' W 005°30'0 0.0
2017-Aug-10 07:56N 56°26' W 005°30'0 0.0
2017-Aug-10 07:26N 56°26' W 005°30'0 0.0
2017-Aug-10 06:59N 56°26' W 005°30'0 0.1
2017-Aug-10 06:30N 56°26' W 005°30'1 2.3
2017-Aug-10 06:00N 56°26' W 005°32'611.5
2017-Aug-10 05:30N 56°22' W 005°40'  

Dump ship's entire track history